首页
METAR-TAF:

METAR-TAF

机场 :

科克赛德, 比利时

纬度: 51-05N, 经度: 002-39E, 海拔: 4米

当前天气观测

该预报发布于33分钟前的01:55 UTC
温度 15°C
湿度 100%
气压 1007 hPa
能见度10公里或以上

METAR: EBFN 250155Z AUTO //////KT 9999 OVC110/// 15/15 Q1007 BLU

时间: 04:28 (02:28 UTC)

预报

该预报发布于10小时和47分钟前的15:41 UTC
预报有效从24日的 19点(UTC)到 25日的 07点(UTC)
风速5节,风向北转西北
能见度10公里或以上
少量云层高于4000英尺
多云层高于8000英尺
几率 40% :
短暂存在
从 24日的 19点(UTC)到 24日的 22点(UTC)
风速10节,风向北转西北,有时为20节阵风
能見度: 6000
散云层高于3000英尺
多云层高于5000英尺
小阵雨
几率 30% :
短暂存在
从 24日的 19点(UTC)到 24日的 22点(UTC)
风速15节,风向多变,有时为25节阵风
能見度: 4000
散云层高于2500英尺
多云层高于5000英尺
阵雨
几率 40% :
短暂存在
从 25日的 00点(UTC)到 25日的 06点(UTC)
能見度: 2000
浅雾, 轻雾
成为
从 25日的 02点(UTC)到 25日的 04点(UTC)
风速5节,风向

TAF: EBFN 241541Z 2419/2507 34005KT 9999 FEW040 BKN080 PROB40 TEMPO 2419/2422 34010G20KT 6000 -SHRA SCT030 BKN050 PROB30 TEMPO 2419/2422 VRB15G25KT 4000 SHRA SCT025 BKN050 PROB40 TEMPO 2500/2506 2000 MIFG BR BECMG 2502/2504 09005KT BY EBWM

超过4000个机场的气象观测和天气预报(METAR&TAF报告)。

可查询的气象台以黄色和红色小点在地图上表示。

将鼠标移到小点上方,可查看气象台名称。

然后点击查看天气观测和预报。

如需切换地图:点击带黑十字的绿色按钮放大地图;点击带横线的绿色按钮缩小地图;或者点击绿色箭头查看邻近地区的地图。


METAR-TAF: